SBBRSBPA

Guest
Details From SBBR - Brasilia Presidente Juscelino Kubitsch
To SBPA - Salgado Filho
Flight Number -
Tags Generated
Created
Modified
Stats Distance 868 nm / 1,607 km
Max Altitude 0 ft / 0 m
Waypoints 4
Social Downloads 1
Likes 0
Share VATSIM

Download

Looking for another format? Having issues loading an existing format? Contact us
Advertisement - Login to hide

Notes

Generated

Route

SBBR KNAVE COA SBPA

ID Type Via Altitude Latitude Longitude Leg Dist Tot Dist Heading (true) Name
O SBBR APT - 0 ft / 0 m -15.86350˚ -47.92758˚ - 0 nm - -
KNAVE FIX - 0 ft / 0 m -22.84567˚ -49.46917˚ 428 nm 428 nm 192° / 192° -
COA VOR - 0 ft / 0 m -29.95016˚ -51.14590˚ 436 nm 864 nm 192° / 192° CANOAS VOR-DME
O SBPA APT - 0 ft / 0 m -29.99414˚ -51.18327˚ 3 nm 867 nm 216° / 216° -

Altitude Profile

Advertisement - Login to hide

Weather


0- 5 10 15 20 25 30 35+ Temperature / ° C

Clouds and Precipitation
Forecast for 2018-05-21 18:00 UTC. Updated 6 minutes ago

Ground ~20,000 ft ~40,000 ft Winds

SBBR

Details ICAO SBBR (BSB)
Name Brasilia Presidente Juscelino Kubitsch
Region Brazil
Timezone America/Sao_Paulo (UTC-3.0)
Stats Elevation 3,479 ft / 1,060 m (AMSL)
Location -15.871101° -47.918626°
Runways 2
Magnetic Variation 21.593° W

METAR

SBBR 211700Z 16002KT CAVOK 25/12 Q1018

Decode

TAF

TAF SBBR 210800Z 2112/2212 22005KT 7000 SCT015 TX23/2118Z TN15/2210Z PROB30 2112/2114 BKN007 BECMG 2118/2120 25005KT 7000 SCT030 PROB30 2121/2124 3000 TSRA SCT007 FEW040CB BECMG 2200/2202 26005KT CAVOK BECMG 2206/2208 19005KT RMK PDE

Decode

Departure Runways

ID Width Length Bearing (true) Bearing (mag) Surface Threshold Offset Overrun Length
11L 148 ft / 45 m 10,493 ft / 3,198 m 86.35° 107.94° Asphalt 0 ft / 0 m 200 ft / 61 m
11R 148 ft / 45 m 10,839 ft / 3,304 m 86.00° 107.59° Asphalt 2,635 ft / 803 m 200 ft / 61 m
29L 148 ft / 45 m 10,839 ft / 3,304 m 265.99° 287.58° Asphalt 0 ft / 0 m 200 ft / 61 m
29R 148 ft / 45 m 10,493 ft / 3,198 m 266.34° 287.93° Asphalt 0 ft / 0 m 200 ft / 61 m

SBPA

Details ICAO SBPA (POA)
Name Salgado Filho
Region Brazil
Timezone America/Sao_Paulo (UTC-3.0)
Stats Elevation 11 ft / 3 m (AMSL)
Location -29.994428° -51.171426°
Runways 1
Magnetic Variation 16.944° W

METAR

SBPA 211700Z 30009KT 9999 SCT023 SCT051 17/12 Q1018

Decode

TAF

Not found

Destination Runways

ID Width Length Bearing (true) Bearing (mag) Surface Threshold Offset Overrun Length
11 138 ft / 42 m 7,487 ft / 2,282 m 91.60° 108.54° Asphalt 0 ft / 0 m 230 ft / 70 m
29 138 ft / 42 m 7,487 ft / 2,282 m 271.59° 288.53° Asphalt 0 ft / 0 m 197 ft / 60 m

Approach Navaids

Runway Type Ident Frequency Range Bearing (true) Bearing (mag) Slope Elevation
11 Localiser IPA 110.30 MHz 18 nm / 33 km 90.92° 107.87° - 11 ft / 3 m (AMSL)
11 Glidescope IPA 110.30 MHz 10 nm / 19 km 91.60° 108.54° 3.00° 11 ft / 3 m (AMSL)

Popular Alternatives